Time;durP1;ratioP1;P1;durP2;ratioP2;P2;SDS_P1;SDS_P2;PMS_P1;PMS_P2;Temp;Humidity;BMP_temperature;BMP_pressure;BME280_temperature;BME280_humidity;BME280_pressure;Samples;Min_cycle;Max_cycle;Signal;HPM_P1;HPM_P2
2024/01/20 00:02:24;;;;;;;4.30;3.80;;;;;;;12.39;48.98;98182.41;105539;1254;75639;-40
2024/01/20 00:04:51;;;;;;;3.60;3.30;;;;;;;12.38;48.89;98184.30;105621;1258;66897;-40
2024/01/20 00:07:19;;;;;;;4.30;3.70;;;;;;;12.38;49.03;98180.11;105639;1254;72653;-40
2024/01/20 00:09:46;;;;;;;4.00;3.50;;;;;;;12.37;48.97;98183.23;105635;1258;62056;-40
2024/01/20 00:12:18;;;;;;;3.80;3.40;;;;;;;12.36;48.93;98183.19;105726;1254;62150;-40
2024/01/20 00:14:45;;;;;;;4.10;3.30;;;;;;;12.36;49.10;98188.04;105596;1254;76270;-40
2024/01/20 00:17:13;;;;;;;4.10;3.20;;;;;;;12.35;49.01;98187.98;105672;1259;66221;-40
2024/01/20 00:19:52;;;;;;;4.20;3.80;;;;;;;12.35;49.08;98187.14;105561;1254;72426;-40
2024/01/20 00:22:21;;;;;;;4.30;3.70;;;;;;;12.35;49.02;98194.98;105533;1259;62051;-40
2024/01/20 00:24:50;;;;;;;4.10;3.70;;;;;;;12.35;48.98;98193.90;105557;1254;62291;-40
2024/01/20 00:27:19;;;;;;;4.80;3.60;;;;;;;12.36;48.98;98199.37;105624;1254;75274;-40
2024/01/20 00:29:46;;;;;;;4.10;3.70;;;;;;;12.35;48.96;98203.35;105562;1254;64048;-40
2024/01/20 00:32:14;;;;;;;4.00;3.60;;;;;;;12.35;48.98;98206.95;105661;1254;72360;-40
2024/01/20 00:34:41;;;;;;;4.20;3.70;;;;;;;12.36;48.95;98205.77;105618;1258;62056;-40
2024/01/20 00:37:26;;;;;;;4.20;3.40;;;;;;;12.36;48.97;98210.42;105426;1254;62069;-40
2024/01/20 00:39:53;;;;;;;4.20;3.80;;;;;;;12.36;48.90;98208.98;105688;1257;75238;-40
2024/01/20 00:42:19;;;;;;;6.20;3.60;;;;;;;12.37;49.01;98214.61;105625;1256;65930;-40
2024/01/20 00:44:46;;;;;;;4.50;3.50;;;;;;;12.38;48.82;98221.69;105651;1255;72648;-40
2024/01/20 00:47:12;;;;;;;4.10;3.70;;;;;;;12.37;48.92;98220.52;105606;1258;62122;-40
2024/01/20 00:49:39;;;;;;;4.10;3.60;;;;;;;12.37;48.83;98224.05;105613;1254;62082;-40
2024/01/20 00:52:06;;;;;;;4.20;3.60;;;;;;;12.38;48.92;98222.77;105414;1258;75437;-40
2024/01/20 00:54:32;;;;;;;4.40;3.50;;;;;;;12.38;48.92;98226.31;105560;1258;65657;-40
2024/01/20 00:56:59;;;;;;;4.40;3.50;;;;;;;12.38;49.04;98228.30;105608;1254;72415;-40
2024/01/20 00:59:26;;;;;;;3.90;3.40;;;;;;;12.38;48.87;98225.77;105632;1254;62058;-40
2024/01/20 01:01:52;;;;;;;4.30;3.50;;;;;;;12.38;48.81;98223.95;105639;1256;62157;-40
2024/01/20 01:04:19;;;;;;;4.20;3.70;;;;;;;12.39;48.98;98228.14;105686;1256;76241;-40
2024/01/20 01:06:46;;;;;;;4.40;3.70;;;;;;;12.38;48.87;98228.79;105614;1257;66126;-40
2024/01/20 01:09:12;;;;;;;4.30;3.40;;;;;;;12.38;48.99;98232.80;105697;1254;72392;-40
2024/01/20 01:11:39;;;;;;;4.20;3.70;;;;;;;12.38;48.91;98236.25;105590;1258;62100;-40
2024/01/20 01:14:05;;;;;;;4.30;3.60;;;;;;;12.39;48.96;98237.26;105452;1255;62003;-40
2024/01/20 01:16:32;;;;;;;4.20;3.60;;;;;;;12.39;48.78;98237.27;105473;1258;62044;-41
2024/01/20 01:18:59;;;;;;;3.70;3.40;;;;;;;12.38;48.97;98234.64;105504;1260;120733;-40
2024/01/20 01:21:25;;;;;;;4.30;3.60;;;;;;;12.38;48.87;98240.06;105611;1254;72710;-40
2024/01/20 01:23:52;;;;;;;3.50;3.20;;;;;;;12.38;48.78;98239.91;105577;1258;62050;-40
2024/01/20 01:26:19;;;;;;;4.00;3.60;;;;;;;12.37;48.91;98244.80;105396;1255;62855;-40
2024/01/20 01:28:46;;;;;;;3.70;3.30;;;;;;;12.38;48.86;98245.44;105575;1256;75322;-40
2024/01/20 01:31:13;;;;;;;4.00;3.60;;;;;;;12.37;48.87;98247.70;105547;1258;64052;-41
2024/01/20 01:33:40;;;;;;;3.90;3.50;;;;;;;12.37;48.98;98243.94;105495;1258;72931;-41
2024/01/20 01:36:06;;;;;;;5.80;3.60;;;;;;;12.36;48.94;98245.29;105549;1258;62037;-40
2024/01/20 01:38:33;;;;;;;4.40;3.40;;;;;;;12.36;48.90;98250.40;105641;1255;62152;-40
2024/01/20 01:41:00;;;;;;;4.20;3.60;;;;;;;12.35;48.87;98253.91;105599;1256;75360;-38
2024/01/20 01:43:27;;;;;;;4.40;3.80;;;;;;;12.35;48.86;98257.56;105555;1254;66678;-39
2024/01/20 01:45:53;;;;;;;3.80;3.40;;;;;;;12.35;48.91;98260.63;105626;1256;72626;-39
2024/01/20 01:48:20;;;;;;;4.20;3.70;;;;;;;12.35;48.86;98263.91;105630;1258;62118;-39
2024/01/20 01:50:48;;;;;;;4.10;3.60;;;;;;;12.34;48.96;98267.18;105510;1254;62140;-40
2024/01/20 01:53:15;;;;;;;3.90;3.50;;;;;;;12.34;48.74;98272.79;105212;1260;75384;-40
2024/01/20 01:55:43;;;;;;;3.80;3.40;;;;;;;12.33;48.94;98270.50;105381;1261;66029;-40
2024/01/20 01:58:10;;;;;;;4.10;3.70;;;;;;;12.32;48.93;98271.63;105413;1254;72392;-40
2024/01/20 02:00:37;;;;;;;5.70;3.70;;;;;;;12.32;49.03;98266.47;105530;1258;62045;-40
2024/01/20 02:03:04;;;;;;;3.60;3.30;;;;;;;12.32;48.79;98267.54;105706;1255;62175;-40
2024/01/20 02:05:30;;;;;;;3.70;3.30;;;;;;;12.32;48.86;98273.58;105581;1255;75232;-40
2024/01/20 02:07:57;;;;;;;4.10;3.50;;;;;;;12.32;48.78;98273.95;105508;1255;64905;-41
2024/01/20 02:10:24;;;;;;;3.70;3.40;;;;;;;12.31;48.89;98281.21;105367;1254;72406;-40
2024/01/20 02:12:50;;;;;;;4.80;3.40;;;;;;;12.31;48.83;98283.73;105574;1258;61991;-40
2024/01/20 02:15:17;;;;;;;5.40;3.60;;;;;;;12.31;48.81;98287.09;105582;1255;62100;-40
2024/01/20 02:17:54;;;;;;;3.80;3.40;;;;;;;12.31;48.95;98288.52;105640;1254;75455;-40
2024/01/20 02:20:22;;;;;;;4.60;3.50;;;;;;;12.30;48.98;98291.59;105655;1254;66223;-40
2024/01/20 02:22:49;;;;;;;3.50;3.20;;;;;;;12.30;48.90;98289.61;105652;1254;72512;-40
2024/01/20 02:25:16;;;;;;;3.70;3.40;;;;;;;12.31;48.92;98291.38;105676;1259;62474;-40
2024/01/20 02:27:42;;;;;;;4.30;3.60;;;;;;;12.31;48.82;98292.55;105677;1254;62159;-40
2024/01/20 02:30:09;;;;;;;5.60;3.70;;;;;;;12.31;48.89;98294.23;105571;1254;62147;-40
2024/01/20 02:32:36;;;;;;;3.90;3.50;;;;;;;12.31;48.84;98292.71;105725;1254;65641;-40
2024/01/20 02:35:03;;;;;;;4.00;3.30;;;;;;;12.31;48.93;98299.64;105611;1254;72550;-40
2024/01/20 02:37:30;;;;;;;4.50;3.90;;;;;;;12.31;48.79;98301.80;105623;1258;62403;-40
2024/01/20 02:39:57;;;;;;;4.20;3.40;;;;;;;12.31;48.76;98300.72;105643;1256;62278;-41
2024/01/20 02:42:23;;;;;;;4.60;4.00;;;;;;;12.32;48.87;98301.89;105631;1254;74460;-39
2024/01/20 02:44:50;;;;;;;3.80;3.20;;;;;;;12.32;48.75;98304.73;105677;1254;66197;-39
2024/01/20 02:47:17;;;;;;;4.40;3.40;;;;;;;12.32;48.88;98307.36;105620;1254;73745;-39
2024/01/20 02:49:44;;;;;;;3.60;3.20;;;;;;;12.32;48.76;98308.59;105449;1256;62036;-41
2024/01/20 02:52:11;;;;;;;4.00;3.50;;;;;;;12.32;48.81;98314.34;105515;1258;62470;-40
2024/01/20 02:54:37;;;;;;;4.00;3.10;;;;;;;12.33;48.93;98315.56;105347;1258;75322;-40
2024/01/20 02:57:04;;;;;;;4.40;3.50;;;;;;;12.33;48.81;98310.52;105460;1254;65090;-39
2024/01/20 02:59:31;;;;;;;3.40;3.00;;;;;;;12.33;48.87;98312.02;105712;1254;72684;-39
2024/01/20 03:01:58;;;;;;;5.70;3.50;;;;;;;12.34;48.95;98308.14;105648;1254;62115;-39
2024/01/20 03:04:24;;;;;;;4.00;3.60;;;;;;;12.34;48.94;98312.91;105423;1256;62012;-39
2024/01/20 03:06:51;;;;;;;4.70;3.70;;;;;;;12.34;48.78;98318.08;105487;1254;76999;-40
2024/01/20 03:09:18;;;;;;;4.30;3.60;;;;;;;12.35;48.76;98323.33;105466;1258;66303;-40
2024/01/20 03:11:44;;;;;;;3.50;3.20;;;;;;;12.35;48.98;98324.23;106027;1254;72571;-40
2024/01/20 03:14:11;;;;;;;3.50;3.20;;;;;;;12.35;48.76;98325.10;105596;1258;62055;-40
2024/01/20 03:16:38;;;;;;;4.50;3.80;;;;;;;12.35;48.84;98324.98;106030;1254;64692;-41
2024/01/20 03:19:05;;;;;;;4.60;3.50;;;;;;;12.35;48.82;98327.40;105531;1258;76027;-40
2024/01/20 03:21:33;;;;;;;4.20;3.40;;;;;;;12.35;48.79;98330.04;105627;1258;66971;-40
2024/01/20 03:24:00;;;;;;;4.00;3.30;;;;;;;12.35;48.81;98335.25;105678;1254;72494;-40
2024/01/20 03:26:27;;;;;;;4.00;3.60;;;;;;;12.36;48.69;98332.44;105598;1258;62063;-40
2024/01/20 03:28:54;;;;;;;3.90;3.50;;;;;;;12.36;48.69;98332.23;105702;1254;62487;-42
2024/01/20 03:31:20;;;;;;;4.10;3.50;;;;;;;12.35;48.68;98336.64;105602;1258;76215;-40
2024/01/20 03:33:47;;;;;;;4.00;3.60;;;;;;;12.35;48.76;98339.33;105553;1257;65820;-40
2024/01/20 03:36:14;;;;;;;5.50;3.50;;;;;;;12.36;48.77;98338.89;105412;1254;72585;-40
2024/01/20 03:38:41;;;;;;;4.30;3.40;;;;;;;12.36;48.72;98333.52;105631;1257;62055;-40
2024/01/20 03:41:07;;;;;;;4.10;3.60;;;;;;;12.35;48.82;98334.80;105678;1254;62160;-40
2024/01/20 03:43:34;;;;;;;4.30;3.60;;;;;;;12.35;48.68;98335.56;105632;1258;75393;-40
2024/01/20 03:46:00;;;;;;;3.70;3.30;;;;;;;12.35;48.88;98338.64;105648;1258;66046;-40
2024/01/20 03:48:27;;;;;;;4.00;3.60;;;;;;;12.35;48.80;98345.23;105629;1255;71587;-40
2024/01/20 03:50:54;;;;;;;3.90;3.30;;;;;;;12.36;48.72;98344.20;105631;1254;62017;-40
2024/01/20 03:53:21;;;;;;;3.70;3.30;;;;;;;12.36;48.79;98347.73;105725;1255;62060;-40
2024/01/20 03:55:48;;;;;;;3.40;3.10;;;;;;;12.36;48.77;98350.20;105374;1256;75914;-41
2024/01/20 03:58:14;;;;;;;5.30;3.60;;;;;;;12.36;48.77;98350.58;105430;1255;66138;-41
2024/01/20 04:00:43;;;;;;;4.20;3.30;;;;;;;12.36;48.82;98351.27;105370;1256;72569;-41
2024/01/20 04:03:09;;;;;;;3.70;3.20;;;;;;;12.38;48.71;98354.02;105452;1258;62493;-41
2024/01/20 04:05:39;;;;;;;4.70;3.50;;;;;;;12.38;48.79;98349.66;105341;1256;62146;-41
2024/01/20 04:08:05;;;;;;;4.30;3.40;;;;;;;12.38;48.79;98355.67;105379;1254;74049;-41
2024/01/20 04:10:32;;;;;;;4.00;3.20;;;;;;;12.38;48.83;98353.15;105449;1258;65997;-40
2024/01/20 04:12:58;;;;;;;3.30;3.00;;;;;;;12.39;48.84;98356.73;105609;1255;72632;-41
2024/01/20 04:15:25;;;;;;;5.60;3.80;;;;;;;12.40;48.84;98356.13;105319;1261;62142;-40
2024/01/20 04:17:52;;;;;;;4.50;3.60;;;;;;;12.40;48.86;98358.39;105600;1256;62150;-40
2024/01/20 04:20:19;;;;;;;3.80;3.40;;;;;;;12.41;48.82;98360.03;105410;1256;74437;-40
2024/01/20 04:22:46;;;;;;;4.30;3.40;;;;;;;12.42;48.76;98365.98;105558;1258;64729;-41
2024/01/20 04:25:12;;;;;;;4.20;3.30;;;;;;;12.42;48.66;98369.84;105314;1254;62101;-40
2024/01/20 04:27:40;;;;;;;3.90;3.50;;;;;;;12.42;48.70;98369.95;105460;1255;62076;-41
2024/01/20 04:30:09;;;;;;;3.90;3.40;;;;;;;12.43;48.72;98377.35;105510;1256;62157;-41
2024/01/20 04:32:36;;;;;;;5.80;3.70;;;;;;;12.44;48.64;98383.15;105562;1258;75589;-41
2024/01/20 04:35:04;;;;;;;3.80;3.40;;;;;;;12.44;48.74;98385.02;105320;1254;66326;-41
2024/01/20 04:37:30;;;;;;;3.80;3.40;;;;;;;12.44;48.62;98384.58;105574;1258;71264;-39
2024/01/20 04:39:59;;;;;;;3.60;3.20;;;;;;;12.45;48.65;98386.61;105515;1258;62059;-40
2024/01/20 04:42:25;;;;;;;4.10;3.40;;;;;;;12.45;48.80;98396.77;105667;1254;62055;-40
2024/01/20 04:44:52;;;;;;;4.90;3.40;;;;;;;12.46;48.70;98399.40;105621;1259;75464;-40
2024/01/20 04:47:18;;;;;;;5.00;3.50;;;;;;;12.46;48.76;98403.33;105705;1258;64994;-40
2024/01/20 04:49:45;;;;;;;4.20;3.20;;;;;;;12.47;48.77;98401.84;105617;1254;72514;-40
2024/01/20 04:52:12;;;;;;;3.90;3.30;;;;;;;12.47;48.65;98403.73;105533;1258;62043;-40
2024/01/20 04:54:38;;;;;;;3.90;3.40;;;;;;;12.47;48.62;98398.73;105415;1256;62164;-40
2024/01/20 04:57:05;;;;;;;3.70;3.30;;;;;;;12.48;48.74;98404.21;105461;1254;75415;-40
2024/01/20 04:59:31;;;;;;;3.50;3.20;;;;;;;12.48;48.68;98411.98;105369;1258;64928;-40
2024/01/20 05:01:58;;;;;;;3.80;3.20;;;;;;;12.49;48.74;98416.23;105319;1256;73092;-42
2024/01/20 05:04:24;;;;;;;3.30;2.90;;;;;;;12.49;48.63;98420.03;105317;1256;62139;-40
2024/01/20 05:06:51;;;;;;;4.60;3.20;;;;;;;12.50;48.64;98425.39;105683;1256;62060;-39
2024/01/20 05:09:18;;;;;;;3.50;3.20;;;;;;;12.50;48.68;98425.77;105676;1258;75225;-40
2024/01/20 05:11:45;;;;;;;3.60;3.30;;;;;;;12.51;48.58;98432.31;105611;1258;66051;-40
2024/01/20 05:14:11;;;;;;;4.00;3.10;;;;;;;12.51;48.74;98431.77;105691;1255;72512;-40
2024/01/20 05:16:38;;;;;;;3.70;3.30;;;;;;;12.51;48.57;98432.63;106044;1258;62141;-40
2024/01/20 05:19:05;;;;;;;3.30;3.00;;;;;;;12.51;48.61;98432.67;105323;1254;62061;-41
2024/01/20 05:21:31;;;;;;;4.20;3.50;;;;;;;12.52;48.66;98432.61;105459;1259;74627;-40
2024/01/20 05:23:58;;;;;;;3.20;2.80;;;;;;;12.52;48.61;98431.00;105424;1255;66059;-41
2024/01/20 05:26:25;;;;;;;3.70;3.30;;;;;;;12.52;48.69;98431.59;105463;1255;72480;-41
2024/01/20 05:28:52;;;;;;;4.20;3.40;;;;;;;12.53;48.56;98430.98;105399;1258;62041;-41
2024/01/20 05:31:18;;;;;;;3.30;3.00;;;;;;;12.53;48.73;98427.80;105507;1254;62156;-41
2024/01/20 05:33:45;;;;;;;3.30;3.00;;;;;;;12.53;48.72;98430.88;105577;1258;75169;-40
2024/01/20 05:36:12;;;;;;;3.30;2.70;;;;;;;12.54;48.71;98432.05;105642;1258;65364;-40
2024/01/20 05:38:39;;;;;;;3.90;3.50;;;;;;;12.54;48.58;98433.92;105425;1256;72637;-40
2024/01/20 05:41:07;;;;;;;3.40;3.00;;;;;;;12.55;48.59;98442.79;105364;1258;62047;-41
2024/01/20 05:43:34;;;;;;;3.70;3.20;;;;;;;12.55;48.59;98441.55;105389;1254;62028;-40
2024/01/20 05:46:07;;;;;;;4.10;3.40;;;;;;;12.55;48.55;98453.73;105298;1254;75329;-40
2024/01/20 05:48:34;;;;;;;4.70;3.40;;;;;;;12.56;48.69;98456.42;105466;1258;64947;-40
2024/01/20 05:51:01;;;;;;;3.30;3.00;;;;;;;12.55;48.59;98460.95;105686;1255;72392;-40
2024/01/20 05:53:28;;;;;;;3.50;3.20;;;;;;;12.56;48.68;98464.67;105551;1258;62036;-40
2024/01/20 05:55:55;;;;;;;3.90;2.80;;;;;;;12.56;48.68;98461.40;105628;1256;62070;-40
2024/01/20 05:58:21;;;;;;;3.40;3.00;;;;;;;12.57;48.68;98462.42;105616;1258;74575;-40
2024/01/20 06:00:48;;;;;;;4.30;3.40;;;;;;;12.57;48.45;98464.29;105648;1258;65806;-39
2024/01/20 06:03:15;;;;;;;4.20;3.20;;;;;;;12.58;48.62;98470.08;105707;1258;72467;-40
2024/01/20 06:05:41;;;;;;;3.70;3.10;;;;;;;12.59;48.54;98472.38;105431;1256;62127;-40
2024/01/20 06:08:08;;;;;;;3.10;2.70;;;;;;;12.59;48.67;98467.87;105370;1256;62061;-40
2024/01/20 06:10:35;;;;;;;3.00;2.80;;;;;;;12.60;48.64;98462.07;105519;1258;75893;-40
2024/01/20 06:13:02;;;;;;;3.80;3.40;;;;;;;12.60;48.58;98462.70;105483;1258;65816;-40
2024/01/20 06:15:28;;;;;;;3.40;3.00;;;;;;;12.61;48.53;98468.81;105517;1256;72695;-40
2024/01/20 06:17:55;;;;;;;4.40;3.40;;;;;;;12.61;48.57;98465.58;105558;1259;62060;-41
2024/01/20 06:20:22;;;;;;;3.70;3.10;;;;;;;12.61;48.64;98466.77;105501;1258;62185;-41
2024/01/20 06:22:48;;;;;;;3.90;3.30;;;;;;;12.62;48.62;98468.64;105342;1256;62099;-41
2024/01/20 06:25:15;;;;;;;4.00;3.30;;;;;;;12.62;48.67;98469.98;105495;1256;62836;-41
2024/01/20 06:27:42;;;;;;;3.50;3.10;;;;;;;12.62;48.55;98478.58;105496;1256;62086;-41
2024/01/20 06:30:09;;;;;;;3.60;2.80;;;;;;;12.63;48.47;98484.59;105594;1258;62051;-41
2024/01/20 06:32:36;;;;;;;3.40;3.10;;;;;;;12.64;48.60;98485.11;105622;1256;62088;-40
2024/01/20 06:35:03;;;;;;;3.90;3.10;;;;;;;12.64;48.49;98488.27;105507;1258;75317;-40
2024/01/20 06:37:30;;;;;;;4.50;3.10;;;;;;;12.64;48.56;98483.81;105606;1254;64951;-41
2024/01/20 06:39:56;;;;;;;4.40;3.00;;;;;;;12.65;48.63;98486.64;105566;1256;72481;-40
2024/01/20 06:42:23;;;;;;;4.20;3.00;;;;;;;12.66;48.57;98483.83;105431;1256;61913;-40
2024/01/20 06:44:49;;;;;;;4.30;3.20;;;;;;;12.66;48.64;98490.34;105377;1256;62177;-41
2024/01/20 06:47:16;;;;;;;4.00;3.30;;;;;;;12.67;48.48;98488.98;105339;1256;62083;-43
2024/01/20 06:49:49;;;;;;;3.50;3.00;;;;;;;12.68;48.58;98490.80;105428;1256;66660;-42
2024/01/20 06:52:16;;;;;;;3.20;2.80;;;;;;;12.68;48.51;98489.06;105327;1256;72396;-41
2024/01/20 06:54:43;;;;;;;3.80;2.80;;;;;;;12.69;48.56;98488.79;105252;1258;62004;-42
2024/01/20 06:57:10;;;;;;;3.70;3.00;;;;;;;12.69;48.61;98488.35;105327;1256;62072;-40
2024/01/20 06:59:37;;;;;;;3.30;3.00;;;;;;;12.70;48.46;98490.64;105505;1258;75547;-40
2024/01/20 07:02:04;;;;;;;4.00;3.20;;;;;;;12.71;48.54;98491.83;105543;1256;66192;-40
2024/01/20 07:04:30;;;;;;;3.30;3.00;;;;;;;12.71;48.48;98493.28;105579;1256;72592;-40
2024/01/20 07:06:57;;;;;;;3.30;3.00;;;;;;;12.72;48.55;98489.22;105376;1255;61975;-41
2024/01/20 07:09:25;;;;;;;3.50;3.20;;;;;;;12.72;48.46;98487.02;105424;1254;62439;-41
2024/01/20 07:11:55;;;;;;;4.10;2.80;;;;;;;12.73;48.59;98490.66;105619;1260;75328;-41
2024/01/20 07:14:23;;;;;;;3.20;2.90;;;;;;;12.74;48.53;98488.40;105658;1257;65140;-41
2024/01/20 07:16:50;;;;;;;3.50;2.70;;;;;;;12.74;48.54;98490.81;105853;1256;72445;-42
2024/01/20 07:19:17;;;;;;;3.90;3.10;;;;;;;12.74;48.37;98483.22;105445;1258;61981;-41
2024/01/20 07:21:43;;;;;;;3.90;3.30;;;;;;;12.75;48.39;98479.72;105442;1256;62518;-41
2024/01/20 07:24:10;;;;;;;3.70;2.90;;;;;;;12.75;48.45;98482.13;105535;1258;75256;-41
2024/01/20 07:26:37;;;;;;;3.40;3.10;;;;;;;12.75;48.48;98479.39;105524;1258;65801;-41
2024/01/20 07:29:03;;;;;;;3.60;3.00;;;;;;;12.76;48.43;98479.81;105329;1256;72544;-41
2024/01/20 07:31:30;;;;;;;2.90;2.60;;;;;;;12.76;48.41;98484.91;105546;1258;62100;-40
2024/01/20 07:33:56;;;;;;;3.20;2.90;;;;;;;12.78;48.48;98486.88;105413;1258;62162;-42
2024/01/20 07:36:23;;;;;;;3.70;3.00;;;;;;;12.78;48.40;98482.85;105305;1258;75437;-40
2024/01/20 07:38:50;;;;;;;3.10;2.80;;;;;;;12.78;48.49;98477.41;105579;1259;66192;-40
2024/01/20 07:41:18;;;;;;;3.50;3.10;;;;;;;12.79;48.50;98479.22;105496;1257;72622;-42
2024/01/20 07:43:45;;;;;;;3.60;2.90;;;;;;;12.79;48.43;98479.05;105385;1258;62039;-41
2024/01/20 07:46:12;;;;;;;3.20;2.80;;;;;;;12.80;48.33;98481.10;105613;1258;62163;-41
2024/01/20 07:48:39;;;;;;;3.10;2.80;;;;;;;12.80;48.40;98481.15;105661;1256;74409;-41
2024/01/20 07:51:06;;;;;;;3.90;2.80;;;;;;;12.81;48.25;98480.80;105577;1256;66622;-42
2024/01/20 07:53:32;;;;;;;4.50;3.30;;;;;;;12.81;48.46;98477.20;105611;1257;73066;-40
2024/01/20 07:55:59;;;;;;;3.10;2.60;;;;;;;12.82;48.28;98479.02;105489;1258;62035;-41
2024/01/20 07:58:26;;;;;;;3.70;2.90;;;;;;;12.82;48.34;98473.42;105353;1255;62075;-41
2024/01/20 08:00:52;;;;;;;3.50;2.90;;;;;;;12.83;48.30;98475.08;105586;1259;75203;-40
2024/01/20 08:03:19;;;;;;;3.20;2.90;;;;;;;12.83;48.32;98479.76;105511;1258;65686;-43
2024/01/20 08:05:46;;;;;;;4.30;3.20;;;;;;;12.84;48.33;98482.95;105302;1256;73461;-41
2024/01/20 08:08:13;;;;;;;3.40;2.80;;;;;;;12.84;48.36;98484.14;105380;1254;61958;-41
2024/01/20 08:10:39;;;;;;;3.90;3.00;;;;;;;12.85;48.30;98485.58;105556;1254;62279;-41
2024/01/20 08:13:06;;;;;;;4.40;2.90;;;;;;;12.85;48.27;98495.80;105627;1258;76500;-40
2024/01/20 08:15:33;;;;;;;3.40;2.90;;;;;;;12.86;48.26;98495.08;105613;1258;66931;-40
2024/01/20 08:18:00;;;;;;;3.40;2.80;;;;;;;12.86;48.24;98486.58;105663;1256;72781;-40
2024/01/20 08:20:27;;;;;;;3.30;2.80;;;;;;;12.87;48.17;98487.22;105299;1259;62497;-40
2024/01/20 08:22:54;;;;;;;3.20;2.90;;;;;;;12.88;48.31;98487.80;105461;1255;62158;-40
2024/01/20 08:25:20;;;;;;;3.90;2.90;;;;;;;12.88;48.22;98495.59;105452;1257;75232;-40
2024/01/20 08:27:47;;;;;;;4.30;2.90;;;;;;;12.89;48.20;98502.84;105593;1258;65294;-40
2024/01/20 08:30:14;;;;;;;3.50;2.80;;;;;;;12.89;48.23;98508.54;105582;1256;72540;-41
2024/01/20 08:32:41;;;;;;;5.20;3.30;;;;;;;12.90;48.20;98514.75;105620;1258;62043;-39
2024/01/20 08:35:09;;;;;;;3.90;3.00;;;;;;;12.90;48.04;98510.88;105518;1256;62181;-40
2024/01/20 08:37:36;;;;;;;3.10;2.80;;;;;;;12.92;48.23;98504.78;105349;1254;75154;-41
2024/01/20 08:40:03;;;;;;;3.80;2.70;;;;;;;12.92;48.21;98507.41;105481;1256;65879;-40
2024/01/20 08:42:30;;;;;;;3.70;2.90;;;;;;;12.92;48.14;98506.98;105754;1256;71029;-40
2024/01/20 08:44:57;;;;;;;3.20;2.80;;;;;;;12.92;48.18;98508.22;105511;1260;62145;-41
2024/01/20 08:47:24;;;;;;;3.90;3.10;;;;;;;12.93;48.07;98508.86;105599;1256;62161;-41
2024/01/20 08:49:51;;;;;;;3.90;3.10;;;;;;;12.93;48.21;98505.20;105273;1258;75390;-39
2024/01/20 08:52:18;;;;;;;3.70;2.70;;;;;;;12.93;48.18;98506.52;105381;1259;65942;-40
2024/01/20 08:54:45;;;;;;;3.60;2.60;;;;;;;12.94;48.12;98509.16;105352;1256;72325;-40
2024/01/20 08:57:11;;;;;;;4.50;3.00;;;;;;;12.94;48.08;98512.21;105359;1256;62691;-40
2024/01/20 08:59:38;;;;;;;3.00;2.70;;;;;;;12.94;48.18;98514.73;105408;1254;62124;-40
2024/01/20 09:02:05;;;;;;;3.00;2.70;;;;;;;12.95;48.15;98517.15;105629;1256;75186;-40
2024/01/20 09:04:32;;;;;;;3.20;2.90;;;;;;;12.95;48.19;98515.70;105430;1258;65796;-40
2024/01/20 09:06:59;;;;;;;3.20;2.90;;;;;;;12.96;48.00;98512.95;105307;1256;72427;-41
2024/01/20 09:09:25;;;;;;;3.60;3.00;;;;;;;12.96;48.10;98516.44;105420;1258;62131;-40
2024/01/20 09:11:52;;;;;;;3.10;2.80;;;;;;;12.96;48.04;98510.84;105507;1256;62141;-40
2024/01/20 09:14:19;;;;;;;3.20;2.70;;;;;;;12.96;48.04;98502.19;105711;1259;76467;-40
2024/01/20 09:16:45;;;;;;;4.40;2.70;;;;;;;12.97;48.18;98496.73;105481;1258;63802;-40
2024/01/20 09:19:12;;;;;;;3.40;2.90;;;;;;;12.98;48.10;98495.10;105385;1259;62070;-40
2024/01/20 09:21:39;;;;;;;3.50;2.70;;;;;;;12.98;48.10;98491.23;106084;1258;62053;-40
2024/01/20 09:24:06;;;;;;;3.10;2.60;;;;;;;12.98;48.03;98487.48;105367;1258;62013;-41
2024/01/20 09:26:33;;;;;;;4.50;2.80;;;;;;;12.99;48.01;98487.35;105437;1255;75182;-41
2024/01/20 09:29:00;;;;;;;2.70;2.40;;;;;;;13.00;47.98;98480.94;105730;1259;66246;-41
2024/01/20 09:31:26;;;;;;;4.00;3.00;;;;;;;13.00;47.94;98476.74;105511;1258;72439;-41
2024/01/20 09:33:53;;;;;;;3.30;2.90;;;;;;;13.01;47.92;98479.15;105427;1258;62043;-41
2024/01/20 09:36:20;;;;;;;3.70;2.90;;;;;;;13.01;48.04;98475.16;105520;1258;62503;-40
2024/01/20 09:38:46;;;;;;;2.90;2.60;;;;;;;13.02;47.90;98474.45;105372;1258;75303;-41
2024/01/20 09:41:13;;;;;;;3.30;3.00;;;;;;;13.03;47.98;98473.52;105497;1259;66287;-41
2024/01/20 09:43:39;;;;;;;3.50;2.90;;;;;;;13.03;47.91;98472.70;105700;1256;72590;-41
2024/01/20 09:46:06;;;;;;;3.10;2.80;;;;;;;13.04;47.92;98471.13;105375;1261;62059;-40
2024/01/20 09:48:33;;;;;;;4.00;2.70;;;;;;;13.06;47.91;98476.07;105530;1256;62415;-40
2024/01/20 09:51:00;;;;;;;3.10;2.60;;;;;;;13.06;48.00;98469.45;105330;1259;75236;-41
2024/01/20 09:53:27;;;;;;;3.10;2.80;;;;;;;13.07;47.85;98468.27;105369;1260;66195;-41
2024/01/20 09:55:53;;;;;;;4.20;2.60;;;;;;;13.08;47.94;98466.77;105330;1258;72390;-40
2024/01/20 09:58:20;;;;;;;3.80;3.00;;;;;;;13.08;47.91;98463.24;105596;1259;62034;-40
2024/01/20 10:00:47;;;;;;;3.20;2.60;;;;;;;13.09;48.01;98461.14;105639;1258;62379;-40
2024/01/20 10:03:15;;;;;;;7.70;2.90;;;;;;;13.09;47.84;98459.63;105547;1261;75383;-40
2024/01/20 10:05:41;;;;;;;4.00;2.80;;;;;;;13.09;47.88;98456.08;105555;1259;66212;-40
2024/01/20 10:08:08;;;;;;;3.90;2.90;;;;;;;13.10;47.85;98452.23;105522;1256;72605;-40
2024/01/20 10:10:35;;;;;;;3.60;2.70;;;;;;;13.11;47.94;98450.61;105357;1260;61965;-40
2024/01/20 10:13:02;;;;;;;3.90;2.80;;;;;;;13.11;47.79;98451.20;105344;1256;62563;-40
2024/01/20 10:15:33;;;;;;;3.20;2.80;;;;;;;13.12;47.88;98447.09;105437;1259;76408;-40
2024/01/20 10:18:08;;;;;;;2.90;2.40;;;;;;;13.12;47.73;98444.83;105362;1256;65287;-40
2024/01/20 10:20:36;;;;;;;3.60;2.60;;;;;;;13.13;47.77;98448.75;105543;1257;72967;-39
2024/01/20 10:23:04;;;;;;;3.30;2.60;;;;;;;13.13;47.63;98445.20;105378;1258;62044;-41
2024/01/20 10:25:30;;;;;;;3.80;3.10;;;;;;;13.14;47.84;98449.39;105609;1259;62131;-41
2024/01/20 10:27:58;;;;;;;3.20;2.60;;;;;;;13.14;47.86;98444.54;105667;1257;75311;-41
2024/01/20 10:30:25;;;;;;;3.70;2.80;;;;;;;13.15;47.85;98452.96;105605;1258;65258;-40
2024/01/20 10:32:52;;;;;;;3.10;2.70;;;;;;;13.15;47.80;98452.05;105551;1258;73164;-40
2024/01/20 10:35:35;;;;;;;4.00;2.80;;;;;;;13.15;47.76;98455.75;105620;1267;62066;-40
2024/01/20 10:38:02;;;;;;;3.20;2.90;;;;;;;13.16;47.69;98462.24;105348;1258;62045;-40
2024/01/20 10:40:29;;;;;;;3.40;2.50;;;;;;;13.16;47.69;98459.83;105484;1262;76421;-40
2024/01/20 10:43:06;;;;;;;3.20;2.80;;;;;;;13.17;47.63;98456.10;105632;1259;65372;-40
2024/01/20 10:45:33;;;;;;;3.80;2.80;;;;;;;13.18;47.74;98453.92;105576;1256;72347;-40
2024/01/20 10:48:17;;;;;;;3.50;2.80;;;;;;;13.19;47.60;98448.66;105509;1259;62059;-40
2024/01/20 10:50:48;;;;;;;3.00;2.70;;;;;;;13.18;47.67;98435.27;105260;1262;62035;-40
2024/01/20 10:53:14;;;;;;;3.30;2.90;;;;;;;13.18;47.61;98425.05;105383;1254;76442;-40
2024/01/20 10:55:41;;;;;;;2.90;2.60;;;;;;;13.18;47.60;98420.58;105586;1258;65808;-40
2024/01/20 10:58:08;;;;;;;3.10;2.60;;;;;;;13.18;47.71;98422.67;105495;1259;72639;-40
2024/01/20 11:00:34;;;;;;;3.50;2.80;;;;;;;13.19;47.60;98424.08;105258;1261;62114;-40
2024/01/20 11:03:01;;;;;;;3.20;2.70;;;;;;;13.18;47.50;98416.98;105608;1260;62821;-40
2024/01/20 11:05:28;;;;;;;3.20;2.70;;;;;;;13.18;47.68;98422.29;105402;1259;75204;-40
2024/01/20 11:07:57;;;;;;;2.90;2.60;;;;;;;13.19;47.60;98422.10;105655;1259;67121;-40
2024/01/20 11:10:23;;;;;;;2.70;2.50;;;;;;;13.19;47.60;98412.23;105577;1258;73049;-41
2024/01/20 11:13:03;;;;;;;2.80;2.40;;;;;;;13.19;47.63;98418.02;105441;1260;62145;-40
2024/01/20 11:15:30;;;;;;;3.30;2.80;;;;;;;13.19;47.57;98410.17;105511;1258;62139;-40
2024/01/20 11:17:57;;;;;;;3.10;2.40;;;;;;;13.19;47.57;98404.16;105678;1259;76341;-40
2024/01/20 11:20:25;;;;;;;3.10;2.80;;;;;;;13.18;47.53;98396.70;105446;1260;65587;-41
2024/01/20 11:22:52;;;;;;;3.60;2.90;;;;;;;13.18;47.57;98401.59;105379;1254;74753;-41
2024/01/20 11:25:19;;;;;;;3.40;2.70;;;;;;;13.18;47.53;98408.37;105542;1258;62044;-40